Time;durP1;ratioP1;P1;durP2;ratioP2;P2;SDS_P1;SDS_P2;PMS_P1;PMS_P2;Temp;Humidity;BMP_temperature;BMP_pressure;BME280_temperature;BME280_humidity;BME280_pressure;Samples;Min_cycle;Max_cycle;Signal;HPM_P1;HPM_P2
2021/07/19 00:00:30;;;;;;;5.22;4.07;;;20.10;99.90;;;;;;5092257;28;20055;-84
2021/07/19 00:02:56;;;;;;;8.27;5.05;;;20.00;99.90;;;;;;5092517;28;20027;-83
2021/07/19 00:05:24;;;;;;;9.02;4.88;;;20.00;99.90;;;;;;5093566;28;20020;-84
2021/07/19 00:07:50;;;;;;;7.32;4.35;;;20.00;99.90;;;;;;5111202;28;20057;-86
2021/07/19 00:10:19;;;;;;;6.65;4.65;;;19.90;99.90;;;;;;5111108;28;20557;-85
2021/07/19 00:12:45;;;;;;;5.45;4.18;;;19.90;99.90;;;;;;5109381;28;20058;-85
2021/07/19 00:15:18;;;;;;;7.95;5.22;;;19.80;99.90;;;;;;5111354;28;20027;-85
2021/07/19 00:17:44;;;;;;;;;;;19.80;99.90;;;;;;5092747;28;20410;-85
2021/07/19 00:20:11;;;;;;;4.50;4.00;;;19.70;99.90;;;;;;5090176;28;19910;-85
2021/07/19 00:22:36;;;;;;;7.30;4.28;;;19.60;99.90;;;;;;5092344;28;20024;-85
2021/07/19 00:25:04;;;;;;;9.85;4.65;;;19.60;99.90;;;;;;5105277;28;20020;-85
2021/07/19 00:27:30;;;;;;;4.65;3.78;;;19.50;99.90;;;;;;5111752;28;20372;-84
2021/07/19 00:29:55;;;;;;;10.02;3.97;;;19.50;99.90;;;;;;5111569;28;20031;-84
2021/07/19 00:32:21;;;;;;;7.93;4.78;;;19.40;99.90;;;;;;5111997;28;20076;-84
2021/07/19 00:34:47;;;;;;;6.82;4.20;;;19.40;99.90;;;;;;5112822;28;20023;-84
2021/07/19 00:37:12;;;;;;;7.60;4.15;;;19.30;99.90;;;;;;5111715;28;20122;-84
2021/07/19 00:39:38;;;;;;;7.10;4.47;;;19.30;99.90;;;;;;5112749;28;20027;-84
2021/07/19 00:42:04;;;;;;;5.72;3.97;;;19.20;99.90;;;;;;5113127;28;20027;-84
2021/07/19 00:44:29;;;;;;;7.25;3.95;;;19.20;99.90;;;;;;5112252;28;20073;-85
2021/07/19 00:46:55;;;;;;;5.68;4.22;;;19.10;99.90;;;;;;5110481;28;20019;-84
2021/07/19 00:49:22;;;;;;;6.40;4.72;;;19.10;99.90;;;;;;5111224;28;20031;-84
2021/07/19 00:51:48;;;;;;;7.13;4.07;;;19.00;99.90;;;;;;5114481;28;20038;-85
2021/07/19 00:54:18;;;;;;;7.30;4.00;;;19.00;99.90;;;;;;5116302;28;20024;-85
2021/07/19 00:56:44;;;;;;;5.85;3.90;;;19.00;99.90;;;;;;5115982;28;20085;-85
2021/07/19 00:59:10;;;;;;;4.38;3.70;;;18.90;99.90;;;;;;5114741;28;20016;-85
2021/07/19 01:01:38;;;;;;;5.15;3.78;;;18.90;99.90;;;;;;5116254;28;20019;-85
2021/07/19 01:04:06;;;;;;;7.78;4.10;;;18.90;99.90;;;;;;5115939;28;20032;-85
2021/07/19 01:06:32;;;;;;;5.55;3.50;;;18.80;99.90;;;;;;5116357;28;20031;-85
2021/07/19 01:08:59;;;;;;;8.88;4.00;;;18.70;99.90;;;;;;5114794;28;20043;-86
2021/07/19 01:11:26;;;;;;;10.30;4.18;;;18.70;99.90;;;;;;5112904;28;20030;-86
2021/07/19 01:13:51;;;;;;;6.07;4.00;;;18.70;99.90;;;;;;5115760;28;20066;-85
2021/07/19 01:16:18;;;;;;;4.95;3.90;;;18.70;99.90;;;;;;5115888;28;20473;-85
2021/07/19 01:18:44;;;;;;;5.88;4.28;;;18.60;99.90;;;;;;5115758;28;20020;-85
2021/07/19 01:21:43;;;;;;;10.48;4.13;;;18.50;99.90;;;;;;5114758;28;20065;-85
2021/07/19 01:24:24;;;;;;;9.10;4.43;;;18.50;99.90;;;;;;5114707;28;20028;-85
2021/07/19 01:27:27;;;;;;;6.05;4.10;;;18.50;99.90;;;;;;5114825;28;20407;-84
2021/07/19 01:29:53;;;;;;;;;;;18.50;99.90;;;;;;5116499;28;20479;-85
2021/07/19 01:32:21;;;;;;;6.38;3.88;;;18.40;99.90;;;;;;5113972;28;19907;-85
2021/07/19 01:34:48;;;;;;;6.25;3.65;;;18.40;99.90;;;;;;5099572;28;20086;-85
2021/07/19 01:37:14;;;;;;;6.55;4.22;;;18.30;99.90;;;;;;5093781;28;20481;-85
2021/07/19 01:39:42;;;;;;;7.40;4.88;;;18.30;99.90;;;;;;5094941;28;20500;-85
2021/07/19 01:42:08;;;;;;;7.28;4.03;;;18.30;99.90;;;;;;5094937;28;20038;-86
2021/07/19 01:44:37;;;;;;;8.48;4.40;;;18.30;99.90;;;;;;5093572;28;20028;-85
2021/07/19 01:47:06;;;;;;;17.88;4.68;;;18.30;99.90;;;;;;5093696;28;20389;-85
2021/07/19 01:49:32;;;;;;;8.20;4.13;;;18.30;99.90;;;;;;5094738;28;20024;-84
2021/07/19 01:51:58;;;;;;;8.20;4.47;;;18.20;99.90;;;;;;5095075;28;20186;-85
2021/07/19 01:54:24;;;;;;;12.13;5.20;;;18.20;99.90;;;;;;5094642;28;20024;-85
2021/07/19 01:56:52;;;;;;;9.40;4.25;;;18.10;99.90;;;;;;5094559;28;20032;-85
2021/07/19 01:59:19;;;;;;;9.75;4.63;;;18.10;99.90;;;;;;5094922;28;20028;-84
2021/07/19 02:01:45;;;;;;;9.05;5.00;;;18.10;99.90;;;;;;5094164;28;20074;-85
2021/07/19 02:04:11;;;;;;;7.90;4.75;;;18.10;99.90;;;;;;5092233;28;20028;-85
2021/07/19 02:06:40;;;;;;;10.10;4.93;;;17.90;99.90;;;;;;5094556;28;20028;-85
2021/07/19 02:09:07;;;;;;;6.85;4.45;;;17.90;99.90;;;;;;5094577;28;20466;-85
2021/07/19 02:11:34;;;;;;;7.90;4.70;;;17.90;99.90;;;;;;5094479;28;20067;-84
2021/07/19 02:14:04;;;;;;;8.60;5.22;;;17.90;99.90;;;;;;5094052;28;20370;-85
2021/07/19 02:16:30;;;;;;;10.80;5.32;;;17.90;99.90;;;;;;5092815;28;20081;-85
2021/07/19 02:18:58;;;;;;;5.45;4.90;;;17.80;99.90;;;;;;5094132;28;20420;-85
2021/07/19 02:21:25;;;;;;;9.35;5.93;;;17.70;99.90;;;;;;5093224;28;20020;-86
2021/07/19 02:23:52;;;;;;;7.15;4.95;;;17.70;99.90;;;;;;5094078;28;20020;-86
2021/07/19 02:26:20;;;;;;;6.47;4.95;;;17.70;99.90;;;;;;5094066;28;20024;-85
2021/07/19 02:28:47;;;;;;;7.10;4.50;;;17.60;99.90;;;;;;5093945;28;20016;-86
2021/07/19 02:31:15;;;;;;;12.38;4.82;;;17.60;99.90;;;;;;5095557;28;20024;-84
2021/07/19 02:33:41;;;;;;;6.03;5.10;;;17.70;99.90;;;;;;5093850;28;20070;-84
2021/07/19 02:36:09;;;;;;;7.80;5.18;;;17.60;99.90;;;;;;5093986;28;20028;-84
2021/07/19 02:38:36;;;;;;;8.18;5.78;;;17.70;99.90;;;;;;5093799;28;20055;-84
2021/07/19 02:41:04;;;;;;;8.88;4.80;;;17.60;99.90;;;;;;5073629;28;20020;-84
2021/07/19 02:43:31;;;;;;;8.32;5.50;;;17.60;99.90;;;;;;5072268;28;20052;-84
2021/07/19 02:45:58;;;;;;;9.15;5.78;;;17.60;99.90;;;;;;5073848;28;20032;-84
2021/07/19 02:48:29;;;;;;;8.75;5.53;;;17.70;99.90;;;;;;5073419;28;20109;-84
2021/07/19 02:50:58;;;;;;;10.50;5.97;;;17.60;99.90;;;;;;5073414;28;20098;-84
2021/07/19 02:53:28;;;;;;;15.00;6.07;;;17.50;99.90;;;;;;5073159;28;20024;-84
2021/07/19 02:55:55;;;;;;;7.65;5.32;;;17.60;99.90;;;;;;5071964;28;20120;-84
2021/07/19 02:58:21;;;;;;;8.32;5.78;;;17.50;99.90;;;;;;5074259;28;20052;-83
2021/07/19 03:00:49;;;;;;;9.82;5.85;;;17.50;99.90;;;;;;5092339;28;20073;-84
2021/07/19 03:03:20;;;;;;;9.65;5.40;;;17.50;99.90;;;;;;5093425;28;20020;-84
2021/07/19 03:05:51;;;;;;;12.35;6.10;;;17.50;99.90;;;;;;5092266;28;20024;-84
2021/07/19 03:08:18;;;;;;;8.82;6.50;;;17.50;99.90;;;;;;5092159;28;20027;-83
2021/07/19 03:10:52;;;;;;;12.73;6.60;;;17.50;99.90;;;;;;5093233;28;20458;-84
2021/07/19 03:13:27;;;;;;;11.20;6.68;;;17.50;99.90;;;;;;5093247;28;20020;-84
2021/07/19 03:15:56;;;;;;;11.13;6.30;;;17.40;99.90;;;;;;5093003;28;20038;-84
2021/07/19 03:18:23;;;;;;;10.93;6.45;;;17.40;99.90;;;;;;5093268;28;20354;-84
2021/07/19 03:20:50;;;;;;;11.63;6.45;;;17.40;99.90;;;;;;5093152;28;20103;-84
2021/07/19 03:23:18;;;;;;;11.02;6.25;;;17.40;99.90;;;;;;5092820;28;20028;-84
2021/07/19 03:25:44;;;;;;;9.07;6.05;;;17.40;99.90;;;;;;5093099;28;20481;-84
2021/07/19 03:28:12;;;;;;;12.38;6.45;;;17.40;99.90;;;;;;5092874;28;20477;-85
2021/07/19 03:30:40;;;;;;;13.40;6.68;;;17.40;99.90;;;;;;5073851;28;20032;-84
2021/07/19 03:33:07;;;;;;;8.70;5.68;;;17.40;99.90;;;;;;5072441;28;20107;-84
2021/07/19 03:35:33;;;;;;;12.18;6.22;;;17.30;99.90;;;;;;5072513;28;20020;-84
2021/07/19 03:38:00;;;;;;;11.35;6.38;;;17.40;99.90;;;;;;5072431;28;20115;-85
2021/07/19 03:40:28;;;;;;;10.57;6.50;;;17.40;99.90;;;;;;5072836;28;20020;-84
2021/07/19 03:42:57;;;;;;;10.50;6.45;;;17.50;99.90;;;;;;5072483;28;20028;-84
2021/07/19 03:45:24;;;;;;;13.25;6.68;;;17.60;99.90;;;;;;5072777;28;20024;-84
2021/07/19 03:47:51;;;;;;;10.68;6.55;;;17.50;99.90;;;;;;5072584;28;20051;-84
2021/07/19 03:50:17;;;;;;;10.68;6.38;;;17.60;99.90;;;;;;5072429;28;20027;-85
2021/07/19 03:52:43;;;;;;;10.50;6.18;;;17.60;99.90;;;;;;5072326;28;20032;-85
2021/07/19 03:55:12;;;;;;;16.00;7.07;;;17.70;99.90;;;;;;5072559;28;20378;-85
2021/07/19 03:57:39;;;;;;;12.48;6.97;;;17.70;99.90;;;;;;5070841;28;20406;-84
2021/07/19 04:00:13;;;;;;;10.52;6.72;;;17.80;99.90;;;;;;5073534;28;20034;-84
2021/07/19 04:02:42;;;;;;;10.45;7.22;;;17.80;99.90;;;;;;5072204;28;20017;-85
2021/07/19 04:05:10;;;;;;;11.18;7.13;;;17.80;99.90;;;;;;5071214;28;20531;-85
2021/07/19 04:07:42;;;;;;;9.27;6.22;;;17.70;99.90;;;;;;5090304;28;20027;-85
2021/07/19 04:10:13;;;;;;;11.68;7.35;;;17.80;99.90;;;;;;5091203;28;20020;-84
2021/07/19 04:12:45;;;;;;;11.38;6.50;;;17.70;99.90;;;;;;5090814;28;20085;-84
2021/07/19 04:15:11;;;;;;;11.10;6.80;;;17.70;99.90;;;;;;5091430;28;20020;-84
2021/07/19 04:17:37;;;;;;;12.00;7.55;;;17.80;99.90;;;;;;5092007;28;20059;-84
2021/07/19 04:20:09;;;;;;;11.55;7.15;;;17.90;99.90;;;;;;5091312;28;20026;-84
2021/07/19 04:22:35;;;;;;;13.25;7.95;;;18.00;99.90;;;;;;5092202;28;20397;-84
2021/07/19 04:25:07;;;;;;;10.77;7.18;;;17.90;99.90;;;;;;5092363;28;20069;-84
2021/07/19 04:27:37;;;;;;;12.75;7.10;;;18.00;99.90;;;;;;5095546;28;20441;-84
2021/07/19 04:30:05;;;;;;;10.55;7.10;;;18.00;99.90;;;;;;5077384;28;20068;-84
2021/07/19 04:32:30;;;;;;;13.10;7.32;;;18.00;99.90;;;;;;5076038;28;20111;-84
2021/07/19 04:34:56;;;;;;;10.73;6.53;;;18.00;99.90;;;;;;5074825;28;20553;-85
2021/07/19 04:37:22;;;;;;;12.38;7.05;;;18.00;99.90;;;;;;5075685;28;20041;-84
2021/07/19 04:39:49;;;;;;;12.88;7.65;;;17.90;99.90;;;;;;5074533;28;20107;-84
2021/07/19 04:42:15;;;;;;;13.13;7.72;;;18.00;99.90;;;;;;5075689;28;20085;-84
2021/07/19 04:44:40;;;;;;;12.50;7.05;;;18.10;99.90;;;;;;5075894;28;20031;-84
2021/07/19 04:47:07;;;;;;;12.35;8.15;;;18.10;99.90;;;;;;5074537;28;20024;-84
2021/07/19 04:49:37;;;;;;;14.05;6.97;;;18.10;99.90;;;;;;5075816;28;20431;-84
2021/07/19 04:52:03;;;;;;;11.38;6.90;;;18.10;99.90;;;;;;5075550;28;20023;-85
2021/07/19 04:54:37;;;;;;;15.73;6.93;;;18.10;99.90;;;;;;5074550;28;20117;-85
2021/07/19 04:57:04;;;;;;;10.18;7.43;;;18.10;99.90;;;;;;5083156;28;20036;-84
2021/07/19 04:59:32;;;;;;;18.00;8.20;;;18.10;99.90;;;;;;5094446;28;20020;-84
2021/07/19 05:01:59;;;;;;;14.15;8.18;;;18.20;99.90;;;;;;5095857;28;20050;-84
2021/07/19 05:04:26;;;;;;;11.95;7.55;;;18.40;99.90;;;;;;5095631;28;20027;-84
2021/07/19 05:06:56;;;;;;;12.55;7.68;;;18.60;99.90;;;;;;5096133;28;20024;-84
2021/07/19 05:09:23;;;;;;;9.05;6.60;;;18.60;99.90;;;;;;5095602;28;20439;-84
2021/07/19 05:11:50;;;;;;;10.05;7.15;;;18.70;99.90;;;;;;5095702;28;20039;-84
2021/07/19 05:14:16;;;;;;;9.32;5.45;;;18.60;99.90;;;;;;5094381;28;20021;-83
2021/07/19 05:16:42;;;;;;;12.10;7.05;;;18.50;99.70;;;;;;5090364;28;20433;-84
2021/07/19 05:19:10;;;;;;;9.88;6.35;;;18.50;98.50;;;;;;5075111;28;20036;-84
2021/07/19 05:21:36;;;;;;;7.90;5.70;;;18.40;98.30;;;;;;5073914;28;20063;-84
2021/07/19 05:24:05;;;;;;;9.50;6.35;;;18.60;97.60;;;;;;5074886;28;20444;-84
2021/07/19 05:26:35;;;;;;;9.15;6.15;;;18.50;97.50;;;;;;5074834;28;20040;-85
2021/07/19 05:29:01;;;;;;;16.13;8.07;;;18.40;96.00;;;;;;5074020;28;20440;-84
2021/07/19 05:31:27;;;;;;;11.18;7.47;;;18.50;96.40;;;;;;5074883;28;20107;-84
2021/07/19 05:33:53;;;;;;;9.68;6.30;;;18.60;96.10;;;;;;5075006;28;20381;-84
2021/07/19 05:36:19;;;;;;;12.20;6.60;;;18.60;94.10;;;;;;5074665;28;20121;-84
2021/07/19 05:38:45;;;;;;;12.40;7.20;;;18.70;91.60;;;;;;5091749;28;20035;-83
2021/07/19 05:41:12;;;;;;;10.55;5.82;;;18.80;93.50;;;;;;5094763;28;20035;-86
2021/07/19 05:43:38;;;;;;;9.02;5.57;;;18.90;90.20;;;;;;5094105;28;20027;-82
2021/07/19 05:46:04;;;;;;;7.05;5.07;;;18.90;88.10;;;;;;5095387;28;20024;-82
2021/07/19 05:48:30;;;;;;;11.90;5.68;;;19.00;87.70;;;;;;5095188;28;20024;-83
2021/07/19 05:50:57;;;;;;;12.27;6.43;;;18.80;87.90;;;;;;5095287;28;20385;-83
2021/07/19 05:53:23;;;;;;;9.55;5.88;;;18.80;89.00;;;;;;5086930;28;20020;-83
2021/07/19 05:55:49;;;;;;;8.68;5.78;;;18.80;88.00;;;;;;5079531;28;20036;-82
2021/07/19 05:58:16;;;;;;;7.88;5.18;;;19.00;87.70;;;;;;5087819;28;20028;-81
2021/07/19 06:00:42;;;;;;;7.05;5.50;;;19.40;87.60;;;;;;5094166;28;20020;-82
2021/07/19 06:03:08;;;;;;;9.55;5.55;;;19.50;84.50;;;;;;5082812;28;20033;-81
2021/07/19 06:05:36;;;;;;;10.73;6.38;;;19.60;82.70;;;;;;5082711;28;20027;-82
2021/07/19 06:08:01;;;;;;;9.77;5.47;;;19.80;82.10;;;;;;5082120;28;20093;-82
2021/07/19 06:10:27;;;;;;;9.10;5.75;;;19.90;80.20;;;;;;5085237;28;20483;-82
2021/07/19 06:12:53;;;;;;;12.77;6.05;;;19.90;82.00;;;;;;5082542;28;20021;-82
2021/07/19 06:15:20;;;;;;;8.13;5.53;;;20.10;80.00;;;;;;5081609;28;20505;-82
2021/07/19 06:17:46;;;;;;;9.27;5.22;;;20.20;78.00;;;;;;5080244;28;20028;-82
2021/07/19 06:20:17;;;;;;;9.43;5.70;;;20.00;77.60;;;;;;5080761;28;20077;-82
2021/07/19 06:22:43;;;;;;;10.65;6.05;;;19.80;79.10;;;;;;5080271;28;20047;-83
2021/07/19 06:25:12;;;;;;;7.90;5.88;;;19.80;79.60;;;;;;5074529;28;20033;-82
2021/07/19 06:27:38;;;;;;;6.53;5.40;;;19.80;81.50;;;;;;5080978;28;20157;-82
2021/07/19 06:30:06;;;;;;;9.02;5.43;;;19.90;82.10;;;;;;5083221;28;20107;-82
2021/07/19 06:32:32;;;;;;;8.70;6.18;;;19.70;81.40;;;;;;5081227;28;20456;-82
2021/07/19 06:34:58;;;;;;;11.23;6.30;;;19.70;83.10;;;;;;5081685;28;20058;-82
2021/07/19 06:37:24;;;;;;;11.75;6.20;;;19.80;83.80;;;;;;5080905;28;20028;-83
2021/07/19 06:39:49;;;;;;;14.23;6.63;;;19.90;83.10;;;;;;5082144;28;20016;-82
2021/07/19 06:42:15;;;;;;;10.75;5.88;;;20.10;83.30;;;;;;5083544;28;20405;-82
2021/07/19 06:44:41;;;;;;;12.13;6.43;;;20.20;81.60;;;;;;5072499;28;20048;-82
2021/07/19 06:47:06;;;;;;;10.00;5.53;;;20.40;79.50;;;;;;5087104;28;20492;-82
2021/07/19 06:49:32;;;;;;;9.93;5.50;;;20.60;82.10;;;;;;5091670;28;20032;-82
2021/07/19 06:51:57;;;;;;;10.38;5.50;;;20.70;79.30;;;;;;5082238;28;20468;-82
2021/07/19 06:54:23;;;;;;;13.07;5.85;;;20.80;79.10;;;;;;5081013;28;20078;-82
2021/07/19 06:56:49;;;;;;;9.82;6.18;;;20.90;77.50;;;;;;5080862;28;20097;-82
2021/07/19 06:59:14;;;;;;;6.97;6.05;;;20.90;77.70;;;;;;5081964;28;20035;-82
2021/07/19 07:01:41;;;;;;;9.52;5.70;;;20.90;77.00;;;;;;5079159;28;20377;-83
2021/07/19 07:04:08;;;;;;;9.23;6.20;;;20.80;77.20;;;;;;5081486;28;20101;-82
2021/07/19 07:06:34;;;;;;;11.48;5.82;;;20.90;77.20;;;;;;5083084;28;20400;-82
2021/07/19 07:09:00;;;;;;;9.27;6.30;;;21.10;77.10;;;;;;5081452;28;20535;-82
2021/07/19 07:11:27;;;;;;;9.55;6.18;;;21.20;75.70;;;;;;5081657;28;20091;-82
2021/07/19 07:13:54;;;;;;;11.48;5.97;;;21.30;77.40;;;;;;5083219;28;20054;-82
2021/07/19 07:16:20;;;;;;;17.77;8.05;;;21.40;76.20;;;;;;5081296;28;20032;-82
2021/07/19 07:18:46;;;;;;;12.80;7.05;;;21.50;74.40;;;;;;5079161;28;20023;-82
2021/07/19 07:21:11;;;;;;;9.00;5.45;;;21.50;76.50;;;;;;5082917;28;20407;-82
2021/07/19 07:23:37;;;;;;;10.82;6.53;;;21.40;75.10;;;;;;5080979;28;20445;-82
2021/07/19 07:26:03;;;;;;;8.10;5.45;;;21.50;75.10;;;;;;5080761;28;20029;-81
2021/07/19 07:28:29;;;;;;;8.95;5.97;;;21.50;73.70;;;;;;5080772;28;20028;-82
2021/07/19 07:30:54;;;;;;;14.32;6.95;;;21.70;73.50;;;;;;5081642;28;20104;-81
2021/07/19 07:33:20;;;;;;;8.07;5.35;;;21.70;73.40;;;;;;5081406;28;20424;-81
2021/07/19 07:35:46;;;;;;;9.52;6.30;;;22.10;71.80;;;;;;5081200;28;20020;-82
2021/07/19 07:38:12;;;;;;;8.60;5.57;;;22.20;70.00;;;;;;5080747;28;20024;-81
2021/07/19 07:40:39;;;;;;;9.77;5.97;;;21.80;69.40;;;;;;5079246;28;20460;-81
2021/07/19 07:43:04;;;;;;;7.20;6.03;;;21.70;71.20;;;;;;5087030;28;20023;-81
2021/07/19 07:45:30;;;;;;;7.72;5.18;;;21.70;71.50;;;;;;5084777;28;20031;-82
2021/07/19 07:47:56;;;;;;;7.32;5.70;;;21.80;72.20;;;;;;5075039;28;20489;-81
2021/07/19 07:50:21;;;;;;;9.63;5.15;;;21.40;71.60;;;;;;5092702;28;20093;-83
2021/07/19 07:52:47;;;;;;;8.10;5.80;;;21.80;73.60;;;;;;5091710;28;20031;-81
2021/07/19 07:55:13;;;;;;;10.68;6.35;;;22.00;71.10;;;;;;5089972;28;20027;-83
2021/07/19 07:57:40;;;;;;;6.50;5.20;;;22.20;68.90;;;;;;5070884;28;20494;-82
2021/07/19 08:00:17;;;;;;;10.00;5.85;;;22.50;69.90;;;;;;5072436;28;20454;-82
2021/07/19 08:02:43;;;;;;;11.57;6.32;;;22.80;68.30;;;;;;5071047;28;20021;-81
2021/07/19 08:05:09;;;;;;;8.40;6.28;;;22.90;66.70;;;;;;5080125;28;20047;-81
2021/07/19 08:07:35;;;;;;;8.13;6.00;;;22.80;66.70;;;;;;5071766;28;20085;-81
2021/07/19 08:10:01;;;;;;;9.75;6.63;;;23.00;66.00;;;;;;5083248;28;20545;-81
2021/07/19 08:12:27;;;;;;;7.53;5.78;;;23.10;65.20;;;;;;5085519;28;20016;-82
2021/07/19 08:14:52;;;;;;;13.02;6.90;;;23.20;65.40;;;;;;5086989;28;20074;-81
2021/07/19 08:17:19;;;;;;;10.63;6.32;;;23.00;67.10;;;;;;5082056;28;20043;-81
2021/07/19 08:19:45;;;;;;;10.68;6.40;;;23.10;66.60;;;;;;5080514;28;20024;-81
2021/07/19 08:22:13;;;;;;;11.90;7.28;;;23.00;66.50;;;;;;5080217;28;20059;-82
2021/07/19 08:24:42;;;;;;;9.32;6.22;;;23.20;66.10;;;;;;5074145;28;20414;-81
2021/07/19 08:27:08;;;;;;;8.77;5.80;;;23.40;66.20;;;;;;5079772;28;20613;-81
2021/07/19 08:29:34;;;;;;;10.25;6.90;;;23.70;65.20;;;;;;5079730;28;20025;-81
2021/07/19 08:32:00;;;;;;;9.07;6.63;;;23.50;64.20;;;;;;5081535;28;20030;-81
2021/07/19 08:34:25;;;;;;;9.00;6.57;;;23.20;63.70;;;;;;5080989;28;20482;-82
2021/07/19 08:36:51;;;;;;;8.75;6.40;;;23.20;65.00;;;;;;5079875;28;20520;-81
2021/07/19 08:39:17;;;;;;;10.55;6.95;;;23.10;64.70;;;;;;5080669;28;20052;-80
2021/07/19 08:41:43;;;;;;;9.30;6.60;;;22.80;64.60;;;;;;5079896;28;20059;-82
2021/07/19 08:44:10;;;;;;;6.97;6.28;;;22.90;65.20;;;;;;5077858;28;20035;-81
2021/07/19 08:46:39;;;;;;;9.80;6.13;;;23.10;64.70;;;;;;5080026;28;20039;-81
2021/07/19 08:49:05;;;;;;;11.23;7.15;;;23.30;62.80;;;;;;5080773;28;20074;-81
2021/07/19 08:51:32;;;;;;;12.38;6.88;;;23.00;62.90;;;;;;5078665;28;20107;-81
2021/07/19 08:54:02;;;;;;;10.93;7.13;;;23.40;63.90;;;;;;5074704;28;20089;-81
2021/07/19 08:56:29;;;;;;;9.32;6.15;;;23.50;63.00;;;;;;5078848;28;20028;-81
2021/07/19 08:58:55;;;;;;;9.35;6.88;;;23.30;60.90;;;;;;5080081;28;20100;-81
2021/07/19 09:01:21;;;;;;;11.50;6.65;;;23.50;60.60;;;;;;5077717;28;20020;-82
2021/07/19 09:03:47;;;;;;;9.48;7.28;;;23.50;59.30;;;;;;5092075;28;20460;-81
2021/07/19 09:06:13;;;;;;;9.98;6.47;;;23.50;57.90;;;;;;5091941;28;20126;-81
2021/07/19 09:08:47;;;;;;;10.55;5.88;;;23.50;55.90;;;;;;5090708;28;20020;-80
2021/07/19 09:11:13;;;;;;;8.95;6.80;;;23.50;54.60;;;;;;5092210;28;20028;-81
2021/07/19 09:13:54;;;;;;;10.50;5.68;;;23.60;54.40;;;;;;5089767;28;20021;-81
2021/07/19 09:16:19;;;;;;;13.05;6.28;;;23.70;52.90;;;;;;5075013;28;20111;-81
2021/07/19 09:18:45;;;;;;;8.15;6.35;;;23.80;52.40;;;;;;5073977;28;20067;-82
2021/07/19 09:21:30;;;;;;;9.90;7.03;;;24.00;53.50;;;;;;5075460;28;20028;-81
2021/07/19 09:24:06;;;;;;;9.43;7.15;;;23.50;51.80;;;;;;5074872;28;20016;-81
2021/07/19 09:26:33;;;;;;;7.43;6.07;;;23.60;51.60;;;;;;5074749;28;20021;-81
2021/07/19 09:29:00;;;;;;;11.40;6.22;;;23.50;51.30;;;;;;5073750;28;20393;-81
2021/07/19 09:31:38;;;;;;;9.85;6.47;;;23.50;51.10;;;;;;5073820;28;20394;-81
2021/07/19 09:34:17;;;;;;;8.50;6.35;;;23.40;50.20;;;;;;5075595;28;20035;-81
2021/07/19 09:37:10;;;;;;;8.43;6.70;;;23.80;50.90;;;;;;5074979;28;20047;-80
2021/07/19 09:39:50;;;;;;;10.57;7.40;;;24.00;51.50;;;;;;5073491;28;20124;-81
2021/07/19 09:42:18;;;;;;;9.25;6.82;;;24.20;49.70;;;;;;5075094;28;20036;-81
2021/07/19 09:44:53;;;;;;;9.77;7.25;;;24.20;48.60;;;;;;5090580;28;20050;-81
2021/07/19 09:47:30;;;;;;;11.75;7.95;;;24.20;49.00;;;;;;5093999;28;20028;-81
2021/07/19 09:49:55;;;;;;;9.15;5.85;;;24.20;49.40;;;;;;5095235;28;20030;-80
2021/07/19 09:52:21;;;;;;;8.30;6.50;;;24.20;49.30;;;;;;5095439;28;20365;-81
2021/07/19 09:54:46;;;;;;;9.40;7.15;;;24.30;50.10;;;;;;5093783;28;20025;-81
2021/07/19 09:57:13;;;;;;;8.48;6.68;;;24.10;48.80;;;;;;5093312;28;20046;-81
2021/07/19 09:59:51;;;;;;;9.60;6.80;;;24.20;49.20;;;;;;5083173;28;20039;-81
2021/07/19 10:02:34;;;;;;;9.77;7.40;;;24.40;48.10;;;;;;5079810;28;20022;-81
2021/07/19 10:05:00;;;;;;;8.60;6.60;;;24.50;49.40;;;;;;5083249;28;20065;-81
2021/07/19 10:07:26;;;;;;;9.18;6.93;;;24.50;49.50;;;;;;5083794;28;20024;-82
2021/07/19 10:10:06;;;;;;;15.07;7.38;;;24.50;49.80;;;;;;5085208;28;20020;-81
2021/07/19 10:12:32;;;;;;;8.98;6.30;;;24.40;50.40;;;;;;5079744;28;20024;-81
2021/07/19 10:15:01;;;;;;;8.40;6.25;;;24.40;49.20;;;;;;5082635;28;20056;-81
2021/07/19 10:17:29;;;;;;;12.18;7.63;;;24.30;49.90;;;;;;5085188;28;20393;-81
2021/07/19 10:19:56;;;;;;;9.00;7.47;;;24.40;48.80;;;;;;5086162;28;20020;-81
2021/07/19 10:22:22;;;;;;;9.70;6.00;;;24.30;49.80;;;;;;5073301;28;20020;-81
2021/07/19 10:24:48;;;;;;;11.20;6.70;;;24.00;50.00;;;;;;5073601;28;20035;-81
2021/07/19 10:27:20;;;;;;;7.60;6.32;;;24.40;50.40;;;;;;5074147;28;20070;-81
2021/07/19 10:29:47;;;;;;;7.95;6.55;;;24.60;50.10;;;;;;5074502;28;20025;-81
2021/07/19 10:32:17;;;;;;;8.75;6.13;;;24.80;49.70;;;;;;5072985;28;20389;-81
2021/07/19 10:34:46;;;;;;;9.80;5.93;;;24.80;49.50;;;;;;5073170;28;20024;-81
2021/07/19 10:37:20;;;;;;;10.80;6.80;;;24.70;50.60;;;;;;5073915;28;20105;-81
2021/07/19 10:39:52;;;;;;;11.00;6.07;;;24.70;50.70;;;;;;5080287;28;20060;-81
2021/07/19 10:42:17;;;;;;;8.15;7.18;;;24.60;51.80;;;;;;5089823;28;20027;-81
2021/07/19 10:44:43;;;;;;;8.68;6.88;;;24.80;51.50;;;;;;5082867;28;20028;-81
2021/07/19 10:47:22;;;;;;;9.93;7.03;;;24.60;52.00;;;;;;5081000;28;20020;-81
2021/07/19 10:49:58;;;;;;;8.55;6.65;;;24.60;51.50;;;;;;5094326;28;20361;-81
2021/07/19 10:52:37;;;;;;;10.32;6.45;;;24.50;52.00;;;;;;5092373;28;20019;-81
2021/07/19 10:55:08;;;;;;;8.93;6.68;;;24.70;51.50;;;;;;5094230;28;20373;-81
2021/07/19 10:57:41;;;;;;;13.48;7.95;;;24.60;52.90;;;;;;5092329;28;20032;-81
2021/07/19 11:00:09;;;;;;;12.20;6.45;;;24.80;53.60;;;;;;5092511;28;20016;-81
2021/07/19 11:02:34;;;;;;;10.45;6.72;;;24.70;53.20;;;;;;5092465;28;20080;-80
2021/07/19 11:05:00;;;;;;;12.73;7.32;;;25.10;53.60;;;;;;5093900;28;20107;-80
2021/07/19 11:07:37;;;;;;;10.88;7.20;;;25.00;53.60;;;;;;5092398;28;20245;-81
2021/07/19 11:10:14;;;;;;;11.45;8.05;;;24.80;52.70;;;;;;5091498;28;20024;-80
2021/07/19 11:12:50;;;;;;;12.50;7.78;;;24.80;52.20;;;;;;5093028;28;20110;-81
2021/07/19 11:15:18;;;;;;;10.57;8.23;;;25.00;52.70;;;;;;5086616;28;20573;-81
2021/07/19 11:17:43;;;;;;;11.95;7.70;;;25.10;50.90;;;;;;5082633;28;20044;-81
2021/07/19 11:20:12;;;;;;;15.45;8.55;;;25.20;50.90;;;;;;5081707;28;20496;-81
2021/07/19 11:22:38;;;;;;;11.80;7.72;;;25.40;50.90;;;;;;5080804;28;20107;-81
2021/07/19 11:25:12;;;;;;;12.32;8.07;;;24.80;53.10;;;;;;5081079;28;20256;-81
2021/07/19 11:27:43;;;;;;;12.75;7.22;;;24.20;54.80;;;;;;5080768;28;20492;-81
2021/07/19 11:30:12;;;;;;;13.38;8.27;;;24.20;55.80;;;;;;5081549;28;20103;-81
2021/07/19 11:32:40;;;;;;;14.88;8.80;;;24.50;56.00;;;;;;5081482;28;20028;-81
2021/07/19 11:35:18;;;;;;;12.63;8.90;;;24.60;54.10;;;;;;5083415;28;20021;-82
2021/07/19 11:37:46;;;;;;;14.07;8.90;;;24.80;53.00;;;;;;5091813;28;20043;-82
2021/07/19 11:40:15;;;;;;;9.95;8.15;;;24.70;52.60;;;;;;5092386;28;20021;-80
2021/07/19 11:42:44;;;;;;;10.52;7.05;;;24.80;52.80;;;;;;5091848;28;20367;-81
2021/07/19 11:45:16;;;;;;;12.43;7.40;;;24.90;53.90;;;;;;5092071;28;20384;-82
2021/07/19 11:47:52;;;;;;;11.35;8.75;;;25.20;55.10;;;;;;5078882;28;20032;-81
2021/07/19 11:50:21;;;;;;;13.30;10.02;;;25.10;53.40;;;;;;5072809;28;20016;-81
2021/07/19 11:52:49;;;;;;;13.82;10.10;;;24.80;52.40;;;;;;5073046;28;20020;-81
2021/07/19 11:55:16;;;;;;;12.30;10.07;;;24.70;52.30;;;;;;5072696;28;20116;-81
2021/07/19 11:57:51;;;;;;;16.90;9.88;;;25.10;52.70;;;;;;5071601;28;20040;-81
2021/07/19 12:00:34;;;;;;;13.30;9.48;;;25.00;52.20;;;;;;5071618;28;20066;-81
2021/07/19 12:03:01;;;;;;;14.85;10.60;;;24.80;53.50;;;;;;5072739;28;20033;-81
2021/07/19 12:05:27;;;;;;;19.75;11.27;;;25.00;53.80;;;;;;5072649;28;20024;-81
2021/07/19 12:07:58;;;;;;;16.00;12.07;;;25.20;52.10;;;;;;5072868;28;20024;-81
2021/07/19 12:10:24;;;;;;;16.52;11.90;;;25.40;51.60;;;;;;5072970;28;20028;-81
2021/07/19 12:12:50;;;;;;;14.63;11.73;;;25.30;51.10;;;;;;5071610;28;20089;-81
2021/07/19 12:15:16;;;;;;;18.20;12.48;;;24.90;51.70;;;;;;5072794;28;20023;-83
2021/07/19 12:17:43;;;;;;;18.80;12.93;;;25.20;50.50;;;;;;5072373;28;20401;-81
2021/07/19 12:20:10;;;;;;;17.48;11.55;;;25.50;50.70;;;;;;5072427;28;20086;-81
2021/07/19 12:22:37;;;;;;;16.05;10.98;;;25.80;51.40;;;;;;5071091;28;20424;-81
2021/07/19 12:25:04;;;;;;;17.30;10.98;;;25.70;51.60;;;;;;5071088;28;20016;-81
2021/07/19 12:27:30;;;;;;;15.05;10.63;;;25.70;53.00;;;;;;5072367;28;20027;-81
2021/07/19 12:29:55;;;;;;;14.63;10.52;;;25.60;52.90;;;;;;5072599;28;20024;-81
2021/07/19 12:32:21;;;;;;;19.30;12.48;;;25.70;53.10;;;;;;5071990;28;20386;-81
2021/07/19 12:34:47;;;;;;;18.23;11.82;;;25.50;50.80;;;;;;5072235;28;20020;-81
2021/07/19 12:37:16;;;;;;;13.85;11.30;;;25.50;51.50;;;;;;5072251;28;20036;-81
2021/07/19 12:39:47;;;;;;;14.77;10.48;;;25.40;50.80;;;;;;5080405;28;20031;-81
2021/07/19 12:42:23;;;;;;;13.63;11.33;;;25.50;50.80;;;;;;5077329;28;20536;-81
2021/07/19 12:44:52;;;;;;;15.82;9.55;;;25.70;49.70;;;;;;5079714;28;20025;-81